Airport View

Enter AWOS ICAO identifier for current METAR.

ex. KFNL

KTXK 120453Z AUTO 12004KT 10SM CLR 04/M01 A3046 RMK AO2 SLP316 T00391011

12 Dec 2019 05:32

Phone: 870-774-0404

Other Area AWOS: KDEQ - K4O4 - KOSA - KDTN

TAF KTXK 112320Z 1200/1224 VRB03KT P6SM SKC FM121600 11005KT P6SM SCT250